createdAt,value
2023-02-12T00:01:09.942Z,98790.22
2023-02-12T00:03:37.776Z,98792.94
2023-02-12T00:06:05.631Z,98794.00
2023-02-12T00:08:32.680Z,98783.59
2023-02-12T00:10:59.531Z,98778.34
2023-02-12T00:13:26.448Z,98781.34
2023-02-12T00:15:53.636Z,98782.78
2023-02-12T00:18:20.873Z,98783.34
2023-02-12T00:20:47.796Z,98788.25
2023-02-12T00:23:14.792Z,98789.69
2023-02-12T00:25:42.799Z,98787.78
2023-02-12T00:28:09.797Z,98792.22
2023-02-12T00:30:36.952Z,98798.63
2023-02-12T00:33:04.318Z,98787.59
2023-02-12T00:35:31.219Z,98788.25
2023-02-12T00:37:58.390Z,98786.97
2023-02-12T00:40:25.332Z,98784.88
2023-02-12T00:42:52.229Z,98787.38
2023-02-12T00:45:19.209Z,98783.25
2023-02-12T00:47:46.096Z,98777.16
2023-02-12T00:50:15.627Z,98773.91
2023-02-12T00:52:42.526Z,98776.78
2023-02-12T00:55:09.570Z,98772.72
2023-02-12T00:57:36.543Z,98762.06
2023-02-12T01:00:04.821Z,98761.69
2023-02-12T01:02:31.721Z,98767.47
2023-02-12T01:04:58.843Z,98754.22
2023-02-12T01:07:25.798Z,98758.22
2023-02-12T01:09:52.708Z,98759.81
2023-02-12T01:12:19.576Z,98760.56
2023-02-12T01:14:46.778Z,98746.34
2023-02-12T01:17:13.764Z,98751.69
2023-02-12T01:19:44.558Z,98743.38
2023-02-12T01:22:11.468Z,98754.53
2023-02-12T01:24:38.393Z,98742.91
2023-02-12T01:27:05.337Z,98742.84
2023-02-12T01:29:32.289Z,98742.13
2023-02-12T01:32:01.287Z,98731.97
2023-02-12T01:34:28.258Z,98729.53
2023-02-12T01:36:55.137Z,98734.09
2023-02-12T01:39:22.418Z,98717.84
2023-02-12T01:41:49.304Z,98724.47
2023-02-12T01:44:22.304Z,98724.88
2023-02-12T01:47:00.782Z,98737.16
2023-02-12T01:49:38.103Z,98726.19
2023-02-12T01:52:10.106Z,98724.03
2023-02-12T01:54:38.272Z,98720.78
2023-02-12T01:57:08.283Z,98723.50
2023-02-12T01:59:36.836Z,98717.91
2023-02-12T02:02:05.441Z,98723.78
2023-02-12T02:04:41.981Z,98723.53
2023-02-12T02:07:12.256Z,98723.66
2023-02-12T02:09:40.416Z,98729.28
2023-02-12T02:12:26.857Z,98717.81
2023-02-12T02:14:59.210Z,98717.53
2023-02-12T02:17:29.912Z,98723.72
2023-02-12T02:20:15.511Z,98721.38
2023-02-12T02:23:20.792Z,98720.59
2023-02-12T02:26:15.175Z,98725.78
2023-02-12T02:29:16.049Z,98724.50
2023-02-12T02:31:47.330Z,98733.63
2023-02-12T02:34:51.264Z,98745.00
2023-02-12T02:37:24.219Z,98730.66
2023-02-12T02:39:58.026Z,98730.97
2023-02-12T02:42:27.922Z,98732.19
2023-02-12T02:45:04.805Z,98738.78
2023-02-12T02:47:56.129Z,98729.81
2023-02-12T02:50:27.497Z,98728.22
2023-02-12T02:53:02.959Z,98729.47
2023-02-12T02:55:39.075Z,98728.59
2023-02-12T02:58:20.167Z,98723.31
2023-02-12T03:01:29.697Z,98723.31
2023-02-12T03:04:03.909Z,98722.47
2023-02-12T03:06:47.203Z,98718.66
2023-02-12T03:09:26.963Z,98716.66
2023-02-12T03:12:00.576Z,98719.69
2023-02-12T03:14:32.485Z,98726.31
2023-02-12T03:16:59.360Z,98739.66
2023-02-12T03:19:32.260Z,98742.22
2023-02-12T03:22:27.184Z,98739.34
2023-02-12T03:24:56.094Z,98739.28
2023-02-12T03:27:31.763Z,98742.63
2023-02-12T03:29:59.146Z,98740.41
2023-02-12T03:32:53.434Z,98730.31
2023-02-12T03:35:45.377Z,98735.19
2023-02-12T03:38:26.923Z,98724.81
2023-02-12T03:40:56.320Z,98729.28
2023-02-12T03:43:29.450Z,98743.66
2023-02-12T03:46:04.113Z,98740.25
2023-02-12T03:48:41.853Z,98739.78
2023-02-12T03:51:23.122Z,98735.41
2023-02-12T03:53:50.306Z,98731.91
2023-02-12T03:56:28.881Z,98734.13
2023-02-12T03:58:56.119Z,98730.78
2023-02-12T04:01:23.726Z,98726.16
2023-02-12T04:03:50.795Z,98732.16
2023-02-12T04:06:24.001Z,98728.75
2023-02-12T04:08:50.909Z,98737.91
2023-02-12T04:11:31.002Z,98730.72
2023-02-12T04:14:25.098Z,98726.00
2023-02-12T04:17:06.556Z,98734.53
2023-02-12T04:19:39.526Z,98738.84
2023-02-12T04:22:22.247Z,98740.88
2023-02-12T04:25:07.329Z,98742.63
2023-02-12T04:27:40.109Z,98741.06
2023-02-12T04:30:33.461Z,98743.44
2023-02-12T04:33:03.844Z,98752.94
2023-02-12T04:35:47.609Z,98758.31
2023-02-12T04:38:23.476Z,98759.22
2023-02-12T04:40:51.769Z,98767.34
2023-02-12T04:43:29.544Z,98759.06
2023-02-12T04:45:56.838Z,98756.81
2023-02-12T04:48:23.991Z,98754.59
2023-02-12T04:50:50.966Z,98755.63
2023-02-12T04:53:17.951Z,98758.47
2023-02-12T04:55:45.372Z,98760.53
2023-02-12T04:58:12.223Z,98761.19
2023-02-12T05:00:39.468Z,98774.25
2023-02-12T05:03:06.386Z,98766.84
2023-02-12T05:05:33.821Z,98763.56
2023-02-12T05:08:01.060Z,98765.69
2023-02-12T05:10:28.476Z,98761.38
2023-02-12T05:12:56.011Z,98764.75
2023-02-12T05:15:23.097Z,98763.72
2023-02-12T05:17:50.028Z,98768.16
2023-02-12T05:20:17.137Z,98758.75
2023-02-12T05:22:44.146Z,98764.38
2023-02-12T05:25:11.854Z,98763.69
2023-02-12T05:27:38.789Z,98772.09
2023-02-12T05:30:06.459Z,98767.69
2023-02-12T05:32:33.434Z,98764.75
2023-02-12T05:35:00.324Z,98772.25
2023-02-12T05:37:27.306Z,98773.81
2023-02-12T05:39:54.242Z,98766.72
2023-02-12T05:42:21.182Z,98775.28
2023-02-12T05:44:48.286Z,98780.38
2023-02-12T05:47:15.171Z,98781.13
2023-02-12T05:49:42.877Z,98786.28
2023-02-12T05:52:09.877Z,98799.09
2023-02-12T05:54:36.816Z,98789.63
2023-02-12T05:57:03.838Z,98800.91
2023-02-12T05:59:30.761Z,98800.75
2023-02-12T06:01:57.610Z,98802.31
2023-02-12T06:04:27.592Z,98803.03
2023-02-12T06:06:55.991Z,98810.34
2023-02-12T06:09:23.779Z,98821.94
2023-02-12T06:11:50.721Z,98814.84
2023-02-12T06:14:19.850Z,98814.69
2023-02-12T06:16:49.645Z,98824.88
2023-02-12T06:19:17.652Z,98828.16
2023-02-12T06:21:44.985Z,98822.81
2023-02-12T06:24:16.729Z,98828.78
2023-02-12T06:26:43.796Z,98846.59
2023-02-12T06:29:11.095Z,98838.97
2023-02-12T06:31:38.472Z,98843.41
2023-02-12T06:34:08.344Z,98846.69
2023-02-12T06:36:38.438Z,98847.53
2023-02-12T06:39:06.505Z,98860.97
2023-02-12T06:41:34.016Z,98867.47
2023-02-12T06:44:00.933Z,98862.25
2023-02-12T06:46:27.920Z,98857.97
2023-02-12T06:48:56.338Z,98846.91
2023-02-12T06:51:24.021Z,98842.50
2023-02-12T06:53:52.619Z,98855.16
2023-02-12T06:56:20.742Z,98856.78
2023-02-12T06:58:53.273Z,98857.41
2023-02-12T07:01:24.668Z,98852.72
2023-02-12T07:04:00.318Z,98851.28
2023-02-12T07:06:28.742Z,98852.03
2023-02-12T07:08:57.103Z,98859.69
2023-02-12T07:11:26.310Z,98866.00
2023-02-12T07:13:53.525Z,98865.56
2023-02-12T07:16:20.822Z,98876.44
2023-02-12T07:18:48.292Z,98867.88
2023-02-12T07:21:16.733Z,98853.44
2023-02-12T07:23:50.852Z,98869.06
2023-02-12T07:26:20.150Z,98873.03
2023-02-12T07:28:47.381Z,98882.38
2023-02-12T07:31:20.214Z,98877.50
2023-02-12T07:33:47.744Z,98871.31
2023-02-12T07:36:19.188Z,98876.44
2023-02-12T07:38:46.806Z,98884.47
2023-02-12T07:41:16.936Z,98886.97
2023-02-12T07:43:45.701Z,98890.25
2023-02-12T07:46:14.614Z,98885.16
2023-02-12T07:48:41.623Z,98895.78
2023-02-12T07:51:11.094Z,98889.41
2023-02-12T07:53:38.663Z,98899.66
2023-02-12T07:56:31.048Z,98896.00
2023-02-12T07:58:59.914Z,98898.44
2023-02-12T08:01:35.565Z,98898.31
2023-02-12T08:04:06.511Z,98903.13
2023-02-12T08:06:36.209Z,98896.94
2023-02-12T08:09:05.635Z,98907.81
2023-02-12T08:11:33.670Z,98917.16
2023-02-12T08:14:01.167Z,98919.59
2023-02-12T08:16:29.388Z,98919.59
2023-02-12T08:19:02.332Z,98919.84
2023-02-12T08:21:34.715Z,98920.59
2023-02-12T08:24:01.767Z,98923.00
2023-02-12T08:26:34.546Z,98930.13
2023-02-12T08:29:07.904Z,98935.78
2023-02-12T08:31:40.677Z,98942.13
2023-02-12T08:34:08.082Z,98938.72
2023-02-12T08:36:40.272Z,98939.00
2023-02-12T08:39:08.381Z,98946.84
2023-02-12T08:41:35.618Z,98937.81
2023-02-12T08:44:04.429Z,98941.59
2023-02-12T08:46:36.538Z,98939.97
2023-02-12T08:49:11.465Z,98941.53
2023-02-12T08:51:41.392Z,98945.16
2023-02-12T08:54:11.510Z,98955.00
2023-02-12T08:56:38.856Z,98952.84
2023-02-12T08:59:07.551Z,98963.66
2023-02-12T09:01:43.446Z,98965.47
2023-02-12T09:04:18.371Z,98973.63
2023-02-12T09:06:46.935Z,98972.72
2023-02-12T09:09:14.844Z,98976.16
2023-02-12T09:11:42.051Z,98984.28
2023-02-12T09:14:12.586Z,98976.91
2023-02-12T09:16:42.259Z,98987.66
2023-02-12T09:19:12.164Z,98986.03
2023-02-12T09:21:39.149Z,98985.69
2023-02-12T09:24:06.314Z,98989.09
2023-02-12T09:26:33.461Z,98991.13
2023-02-12T09:29:02.397Z,98993.06
2023-02-12T09:31:31.092Z,98994.31
2023-02-12T09:34:00.923Z,99000.16
2023-02-12T09:36:28.063Z,98993.50
2023-02-12T09:38:55.194Z,98992.53
2023-02-12T09:41:46.295Z,98991.50
2023-02-12T09:44:37.412Z,98998.44
2023-02-12T10:18:12.352Z,98997.44
2023-02-12T10:20:48.288Z,98991.63
2023-02-12T10:23:45.597Z,98990.09
2023-02-12T10:26:19.160Z,98998.88
2023-02-12T10:28:46.704Z,98992.38
2023-02-12T10:31:30.528Z,98995.81
2023-02-12T10:33:58.961Z,98990.94
2023-02-12T10:36:28.984Z,98991.75
2023-02-12T10:39:01.958Z,98993.00
2023-02-12T10:41:31.482Z,98993.00
2023-02-12T10:43:58.537Z,98994.69
2023-02-12T10:46:25.472Z,98993.56
2023-02-12T10:48:54.392Z,98994.97
2023-02-12T10:51:49.552Z,99005.69
2023-02-12T10:54:34.144Z,99012.81
2023-02-12T10:57:12.635Z,99022.22
2023-02-12T10:59:41.267Z,99014.41
2023-02-12T11:02:23.874Z,99021.53
2023-02-12T11:04:52.013Z,99026.25
2023-02-12T11:07:19.063Z,99033.13
2023-02-12T11:09:48.069Z,99027.75
2023-02-12T11:12:31.813Z,99033.09
2023-02-12T11:15:01.834Z,99035.53
2023-02-12T11:17:39.007Z,99027.75
2023-02-12T11:20:10.218Z,99033.28
2023-02-12T11:22:37.388Z,99034.28
2023-02-12T11:25:16.128Z,99031.81
2023-02-12T11:27:44.137Z,99040.22
2023-02-12T11:30:13.437Z,99032.53
2023-02-12T11:32:40.682Z,99036.81
2023-02-12T11:35:27.265Z,99024.22
2023-02-12T11:37:57.072Z,99036.44
2023-02-12T11:40:27.724Z,99029.56
2023-02-12T11:42:59.103Z,99022.28
2023-02-12T11:45:32.456Z,99028.91
2023-02-12T11:47:59.933Z,99018.09
2023-02-12T11:50:33.138Z,99024.69
2023-02-12T11:53:09.459Z,99026.38
2023-02-12T11:55:40.167Z,99025.31
2023-02-12T11:58:13.154Z,99022.44
2023-02-12T12:00:45.668Z,99005.41
2023-02-12T12:03:24.568Z,99024.50
2023-02-12T12:05:55.133Z,99024.22
2023-02-12T12:08:29.742Z,99030.84
2023-02-12T12:11:18.376Z,99037.13
2023-02-12T12:14:01.728Z,99037.88
2023-02-12T12:17:00.797Z,99036.81
2023-02-12T12:19:54.151Z,99040.22
2023-02-12T12:22:42.604Z,99039.03
2023-02-12T12:25:28.030Z,99036.16
2023-02-12T12:28:08.256Z,99041.97
2023-02-12T12:31:12.442Z,99033.16
2023-02-12T12:33:48.609Z,99040.00
2023-02-12T12:36:33.631Z,99028.97
2023-02-12T12:39:32.891Z,99046.69
2023-02-12T12:42:28.549Z,99045.47
2023-02-12T12:45:18.039Z,99047.06
2023-02-12T12:48:18.015Z,99051.69
2023-02-12T12:50:54.863Z,99046.69
2023-02-12T12:53:40.618Z,99050.25
2023-02-12T12:56:22.027Z,99063.22
2023-02-12T12:59:10.291Z,99067.03
2023-02-12T13:02:05.242Z,99059.13
2023-02-12T13:04:50.761Z,99047.78
2023-02-12T13:07:34.625Z,99068.22
2023-02-12T13:10:22.415Z,99075.34
2023-02-12T13:12:54.592Z,99080.88
2023-02-12T13:15:45.707Z,99081.03
2023-02-12T13:18:22.002Z,99085.66
2023-02-12T13:21:14.081Z,99097.78
2023-02-12T13:24:03.606Z,99092.53
2023-02-12T13:26:45.591Z,99100.38
2023-02-12T13:29:12.699Z,99103.19
2023-02-12T13:31:48.306Z,99087.97
2023-02-12T13:34:18.564Z,99099.09
2023-02-12T13:36:46.167Z,99089.72
2023-02-12T13:39:13.058Z,99106.78
2023-02-12T13:41:44.607Z,99110.31
2023-02-12T13:44:31.769Z,99115.72
2023-02-12T13:47:12.273Z,99124.09
2023-02-12T13:49:54.362Z,99122.56
2023-02-12T13:52:56.253Z,99127.97
2023-02-12T13:55:53.508Z,99137.56
2023-02-12T13:58:32.637Z,99135.09
2023-02-12T14:01:01.730Z,99138.59
2023-02-12T14:03:31.132Z,99135.38
2023-02-12T14:06:32.434Z,99133.47
2023-02-12T14:09:10.753Z,99136.91
2023-02-12T14:11:50.773Z,99146.34
2023-02-12T14:14:31.471Z,99148.84
2023-02-12T14:17:18.748Z,99137.56
2023-02-12T14:19:51.553Z,99145.09
2023-02-12T14:22:27.148Z,99147.47
2023-02-12T14:24:56.330Z,99150.03
2023-02-12T14:27:35.007Z,99145.00
2023-02-12T14:30:07.838Z,99148.53
2023-02-12T14:32:53.878Z,99152.13
2023-02-12T14:35:26.334Z,99159.13
2023-02-12T14:37:55.858Z,99166.94
2023-02-12T14:40:34.638Z,99169.31
2023-02-12T14:43:04.163Z,99163.13
2023-02-12T14:45:40.149Z,99172.00
2023-02-12T14:48:41.471Z,99168.03
2023-02-12T14:51:20.248Z,99170.03
2023-02-12T14:53:48.675Z,99171.75
2023-02-12T14:56:21.775Z,99182.72
2023-02-12T14:58:51.178Z,99194.06
2023-02-12T15:01:18.916Z,99198.34
2023-02-12T15:03:54.237Z,99198.47
2023-02-12T15:06:35.653Z,99202.81
2023-02-12T15:09:10.409Z,99209.81
2023-02-12T15:11:43.927Z,99216.81
2023-02-12T15:14:24.675Z,99224.59
2023-02-12T15:17:06.015Z,99241.88
2023-02-12T15:19:54.818Z,99241.88
2023-02-12T15:22:31.697Z,99251.59
2023-02-12T15:25:24.614Z,99254.25
2023-02-12T15:28:13.962Z,99269.75
2023-02-12T15:30:43.194Z,99271.59
2023-02-12T15:33:28.238Z,99280.75
2023-02-12T15:35:56.560Z,99281.38
2023-02-12T15:38:36.944Z,99289.13
2023-02-12T15:41:05.527Z,99283.00
2023-02-12T15:43:37.135Z,99285.84
2023-02-12T15:46:07.881Z,99291.09
2023-02-12T15:48:37.013Z,99299.09
2023-02-12T15:51:15.684Z,99305.31
2023-02-12T15:53:43.460Z,99303.63
2023-02-12T15:56:17.573Z,99315.84
2023-02-12T15:58:52.554Z,99321.97
2023-02-12T16:01:22.844Z,99327.94
2023-02-12T16:04:02.058Z,99328.91
2023-02-12T16:06:34.277Z,99328.19
2023-02-12T16:09:08.362Z,99337.72
2023-02-12T16:11:36.060Z,99346.41
2023-02-12T16:14:24.858Z,99348.91
2023-02-12T16:16:54.899Z,99351.72
2023-02-12T16:19:37.239Z,99350.81
2023-02-12T16:22:16.297Z,99355.91
2023-02-12T16:24:49.356Z,99366.25
2023-02-12T16:27:16.200Z,99361.88
2023-02-12T16:29:49.744Z,99373.91
2023-02-12T16:32:34.926Z,99373.91
2023-02-12T16:35:27.705Z,99379.00
2023-02-12T16:38:02.193Z,99402.53
2023-02-12T16:40:32.600Z,99405.34
2023-02-12T16:43:07.936Z,99405.22
2023-02-12T16:45:40.636Z,99409.50
2023-02-12T16:48:15.382Z,99408.84
2023-02-12T16:50:48.933Z,99408.66
2023-02-12T16:53:35.948Z,99417.31
2023-02-12T16:56:03.672Z,99412.25
2023-02-12T16:58:30.843Z,99412.63
2023-02-12T17:00:59.404Z,99410.41
2023-02-12T17:03:26.553Z,99409.63
2023-02-12T17:05:53.561Z,99401.94
2023-02-12T17:08:23.419Z,99419.31
2023-02-12T17:10:50.435Z,99418.59
2023-02-12T17:13:18.555Z,99425.38
2023-02-12T17:15:57.500Z,99431.28
2023-02-12T17:18:25.704Z,99431.50
2023-02-12T17:20:58.167Z,99446.91
2023-02-12T17:23:25.605Z,99449.59
2023-02-12T17:25:52.832Z,99461.66
2023-02-12T17:28:21.150Z,99463.03
2023-02-12T17:30:48.233Z,99470.50
2023-02-12T17:33:16.926Z,99474.19
2023-02-12T17:35:44.009Z,99479.44
2023-02-12T17:38:11.931Z,99483.16
2023-02-12T17:40:39.892Z,99490.19
2023-02-12T17:43:08.275Z,99500.41
2023-02-12T17:45:35.774Z,99503.81
2023-02-12T17:48:02.737Z,99509.94
2023-02-12T17:50:29.752Z,99497.19
2023-02-12T17:52:57.262Z,99510.13
2023-02-12T17:55:24.202Z,99507.59
2023-02-12T17:57:56.315Z,99520.72
2023-02-12T18:00:24.211Z,99524.25
2023-02-12T18:02:51.912Z,99523.56
2023-02-12T18:05:19.387Z,99521.00
2023-02-12T18:07:47.005Z,99522.94
2023-02-12T18:10:14.012Z,99528.72
2023-02-12T18:12:41.400Z,99535.63
2023-02-12T18:15:09.634Z,99540.75
2023-02-12T18:17:37.034Z,99545.06
2023-02-12T18:20:04.848Z,99545.22
2023-02-12T18:22:34.870Z,99556.53
2023-02-12T18:25:01.901Z,99563.44
2023-02-12T18:27:29.708Z,99559.22
2023-02-12T18:29:57.391Z,99566.97
2023-02-12T18:32:24.630Z,99571.28
2023-02-12T18:34:51.691Z,99570.31
2023-02-12T18:37:18.817Z,99577.34
2023-02-12T18:39:45.834Z,99578.13
2023-02-12T18:42:12.839Z,99583.34
2023-02-12T18:44:40.006Z,99583.28
2023-02-12T18:47:07.128Z,99582.66
2023-02-12T18:49:34.112Z,99583.94
2023-02-12T18:52:02.222Z,99594.19
2023-02-12T18:54:29.278Z,99586.75
2023-02-12T18:56:56.513Z,99593.69
2023-02-12T18:59:25.205Z,99598.84
2023-02-12T19:01:54.167Z,99609.16
2023-02-12T19:04:23.987Z,99608.44
2023-02-12T19:06:53.838Z,99612.06
2023-02-12T19:09:24.332Z,99610.41
2023-02-12T19:11:54.156Z,99602.84
2023-02-12T19:14:23.332Z,99609.66
2023-02-12T19:16:51.072Z,99611.22
2023-02-12T19:19:22.083Z,99623.94
2023-02-12T19:21:49.480Z,99613.56
2023-02-12T19:24:16.992Z,99619.47
2023-02-12T19:26:47.456Z,99622.31
2023-02-12T19:29:14.387Z,99623.38
2023-02-12T19:31:45.405Z,99620.03
2023-02-12T19:34:23.300Z,99623.56
2023-02-12T19:36:50.441Z,99627.63
2023-02-12T19:39:20.659Z,99632.72
2023-02-12T19:41:48.295Z,99628.47
2023-02-12T19:44:21.008Z,99631.25
2023-02-12T19:46:49.543Z,99626.00
2023-02-12T19:49:22.801Z,99636.19
2023-02-12T19:51:50.433Z,99637.22
2023-02-12T19:54:18.646Z,99648.41
2023-02-12T19:56:46.704Z,99646.75
2023-02-12T19:59:17.228Z,99648.63
2023-02-12T20:01:45.140Z,99646.06
2023-02-12T20:04:13.264Z,99655.47
2023-02-12T20:06:41.574Z,99648.31
2023-02-12T20:09:10.548Z,99651.22
2023-02-12T20:11:38.755Z,99656.56
2023-02-12T20:14:08.136Z,99653.16
2023-02-12T20:16:38.315Z,99657.53
2023-02-12T20:19:11.145Z,99661.53
2023-02-12T20:21:38.541Z,99664.78
2023-02-12T20:24:06.044Z,99659.66
2023-02-12T20:26:34.044Z,99674.19
2023-02-12T20:29:04.855Z,99674.16
2023-02-12T20:31:35.970Z,99674.13
2023-02-12T20:34:06.428Z,99677.63
2023-02-12T20:36:37.893Z,99680.03
2023-02-12T20:39:06.856Z,99681.88
2023-02-12T20:41:38.124Z,99677.44
2023-02-12T20:44:07.025Z,99690.56
2023-02-12T20:46:38.008Z,99681.25
2023-02-12T20:49:05.994Z,99686.06
2023-02-12T20:51:33.098Z,99675.59
2023-02-12T20:54:02.014Z,99680.78
2023-02-12T20:56:31.791Z,99675.63
2023-02-12T20:58:59.380Z,99676.84
2023-02-12T21:01:27.550Z,99675.97
2023-02-12T21:03:55.705Z,99672.63
2023-02-12T21:06:24.448Z,99671.66
2023-02-12T21:08:51.860Z,99665.66
2023-02-12T21:11:21.973Z,99673.53
2023-02-12T21:13:59.260Z,99677.78
2023-02-12T21:16:32.835Z,99673.66
2023-02-12T21:19:00.484Z,99683.91
2023-02-12T21:21:30.483Z,99683.06
2023-02-12T21:23:59.468Z,99687.38
2023-02-12T21:26:28.944Z,99688.16
2023-02-12T21:28:57.830Z,99689.19
2023-02-12T21:31:39.728Z,99685.09
2023-02-12T21:34:09.244Z,99688.72
2023-02-12T21:36:38.938Z,99689.59
2023-02-12T21:39:08.521Z,99690.53
2023-02-12T21:41:37.906Z,99696.66
2023-02-12T21:44:10.232Z,99695.78
2023-02-12T21:46:37.972Z,99697.00
2023-02-12T21:49:05.442Z,99700.56
2023-02-12T21:51:43.180Z,99705.75
2023-02-12T21:54:17.900Z,99706.56
2023-02-12T21:56:46.887Z,99699.88
2023-02-12T21:59:14.707Z,99702.44
2023-02-12T22:01:44.576Z,99713.63
2023-02-12T22:04:11.827Z,99711.97
2023-02-12T22:06:42.571Z,99709.53
2023-02-12T22:09:11.757Z,99718.13
2023-02-12T22:11:40.593Z,99719.84
2023-02-12T22:14:08.752Z,99716.25
2023-02-12T22:16:37.377Z,99714.56
2023-02-12T22:19:05.234Z,99723.41
2023-02-12T22:21:35.440Z,99719.03
2023-02-12T22:24:04.981Z,99716.53
2023-02-12T22:26:33.130Z,99722.59
2023-02-12T22:29:03.773Z,99717.38
2023-02-12T22:31:33.760Z,99726.97
2023-02-12T22:34:04.759Z,99724.38
2023-02-12T22:36:34.315Z,99727.84
2023-02-12T22:39:01.718Z,99738.13
2023-02-12T22:41:28.987Z,99736.44
2023-02-12T22:43:59.076Z,99739.06
2023-02-12T22:46:27.107Z,99738.13
2023-02-12T22:48:54.660Z,99739.84
2023-02-12T22:51:27.903Z,99744.91
2023-02-12T22:53:55.621Z,99739.59
2023-02-12T22:56:23.544Z,99745.53
2023-02-12T22:58:56.231Z,99746.31
2023-02-12T23:01:23.801Z,99742.03
2023-02-12T23:03:51.617Z,99747.13
2023-02-12T23:06:21.551Z,99751.47
2023-02-12T23:08:53.507Z,99758.22
2023-02-12T23:11:21.146Z,99764.28
2023-02-12T23:13:48.108Z,99777.09
2023-02-12T23:16:15.139Z,99777.84
2023-02-12T23:18:42.408Z,99770.09
2023-02-12T23:21:09.611Z,99758.22
2023-02-12T23:23:36.588Z,99765.88
2023-02-12T23:26:03.618Z,99754.06
2023-02-12T23:28:30.650Z,99759.97
2023-02-12T23:30:58.455Z,99758.22
2023-02-12T23:33:25.694Z,99759.03
2023-02-12T23:35:52.711Z,99764.25
2023-02-12T23:38:19.605Z,99772.19
2023-02-12T23:40:47.728Z,99767.19
2023-02-12T23:43:14.727Z,99777.59
2023-02-12T23:45:44.595Z,99767.44
2023-02-12T23:48:12.075Z,99770.97
2023-02-12T23:50:39.976Z,99770.22
2023-02-12T23:53:06.983Z,99773.66
2023-02-12T23:55:36.668Z,99768.59
2023-02-12T23:58:04.709Z,99772.03
